sensor_id;sensor_type;location;lat;lon;timestamp;pressure;altitude;pressure_sealevel;temperature;humidity
74343;BME280;62767;50.300;8.070;2024-03-22T00:00:04;100624.63;;;19.56;45.22
74343;BME280;62767;50.300;8.070;2024-03-22T00:02:38;100620.31;;;19.55;45.17
74343;BME280;62767;50.300;8.070;2024-03-22T00:05:04;100616.94;;;19.53;45.34
74343;BME280;62767;50.300;8.070;2024-03-22T00:07:29;100613.47;;;19.53;45.22
74343;BME280;62767;50.300;8.070;2024-03-22T00:09:55;100605.69;;;19.51;45.39
74343;BME280;62767;50.300;8.070;2024-03-22T00:12:22;100603.06;;;19.51;45.24
74343;BME280;62767;50.300;8.070;2024-03-22T00:14:47;100594.31;;;19.51;45.22
74343;BME280;62767;50.300;8.070;2024-03-22T00:17:13;100597.06;;;19.49;45.17
74343;BME280;62767;50.300;8.070;2024-03-22T00:19:38;100594.41;;;19.49;45.30
74343;BME280;62767;50.300;8.070;2024-03-22T00:22:04;100601.38;;;19.50;45.18
74343;BME280;62767;50.300;8.070;2024-03-22T00:24:29;100589.25;;;19.48;45.32
74343;BME280;62767;50.300;8.070;2024-03-22T00:26:55;100587.59;;;19.47;45.22
74343;BME280;62767;50.300;8.070;2024-03-22T00:29:20;100585.94;;;19.46;45.08
74343;BME280;62767;50.300;8.070;2024-03-22T00:31:46;100586.03;;;19.44;45.24
74343;BME280;62767;50.300;8.070;2024-03-22T00:34:11;100587.94;;;19.42;45.18
74343;BME280;62767;50.300;8.070;2024-03-22T00:36:37;100572.09;;;19.42;45.20
74343;BME280;62767;50.300;8.070;2024-03-22T00:39:02;100576.41;;;19.43;45.15
74343;BME280;62767;50.300;8.070;2024-03-22T00:41:28;100572.09;;;19.42;45.27
74343;BME280;62767;50.300;8.070;2024-03-22T00:43:54;100574.91;;;19.41;45.18
74343;BME280;62767;50.300;8.070;2024-03-22T00:46:20;100570.41;;;19.41;45.26
74343;BME280;62767;50.300;8.070;2024-03-22T00:48:45;100564.47;;;19.39;45.25
74343;BME280;62767;50.300;8.070;2024-03-22T00:51:11;100563.63;;;19.39;45.23
74343;BME280;62767;50.300;8.070;2024-03-22T00:53:36;100566.38;;;19.37;45.21
74343;BME280;62767;50.300;8.070;2024-03-22T00:56:02;100566.38;;;19.37;45.17
74343;BME280;62767;50.300;8.070;2024-03-22T00:58:27;100563.84;;;19.35;45.14
74343;BME280;62767;50.300;8.070;2024-03-22T01:00:54;100565.66;;;19.35;45.27
74343;BME280;62767;50.300;8.070;2024-03-22T01:03:20;100560.38;;;19.35;45.18
74343;BME280;62767;50.300;8.070;2024-03-22T01:05:45;100562.31;;;19.33;45.26
74343;BME280;62767;50.300;8.070;2024-03-22T01:08:11;100566.75;;;19.32;45.27
74343;BME280;62767;50.300;8.070;2024-03-22T01:10:37;100561.59;;;19.31;45.25
74343;BME280;62767;50.300;8.070;2024-03-22T01:13:02;100563.41;;;19.30;45.29
74343;BME280;62767;50.300;8.070;2024-03-22T01:15:28;100562.56;;;19.30;45.28
74343;BME280;62767;50.300;8.070;2024-03-22T01:17:54;100560.06;;;19.28;45.19
74343;BME280;62767;50.300;8.070;2024-03-22T01:20:19;100560.19;;;19.27;45.27
74343;BME280;62767;50.300;8.070;2024-03-22T01:22:45;100559.25;;;19.28;45.23
74343;BME280;62767;50.300;8.070;2024-03-22T01:25:10;100556.72;;;19.26;45.30
74343;BME280;62767;50.300;8.070;2024-03-22T01:27:36;100553.25;;;19.26;45.13
74343;BME280;62767;50.300;8.070;2024-03-22T01:30:02;100553.25;;;19.26;45.15
74343;BME280;62767;50.300;8.070;2024-03-22T01:32:28;100542.81;;;19.24;45.14
74343;BME280;62767;50.300;8.070;2024-03-22T01:34:53;100537.69;;;19.23;45.31
74343;BME280;62767;50.300;8.070;2024-03-22T01:37:19;100535.03;;;19.23;45.17
74343;BME280;62767;50.300;8.070;2024-03-22T01:39:44;100527.97;;;19.23;45.21
74343;BME280;62767;50.300;8.070;2024-03-22T01:42:10;100525.44;;;19.22;45.16
74343;BME280;62767;50.300;8.070;2024-03-22T01:44:35;100528.06;;;19.22;45.25
74343;BME280;62767;50.300;8.070;2024-03-22T01:47:01;100529.88;;;19.21;45.21
74343;BME280;62767;50.300;8.070;2024-03-22T01:49:27;100524.72;;;19.20;45.23
74343;BME280;62767;50.300;8.070;2024-03-22T01:51:53;100528.31;;;19.19;45.25
74343;BME280;62767;50.300;8.070;2024-03-22T01:54:20;100524.84;;;19.18;45.28
74343;BME280;62767;50.300;8.070;2024-03-22T01:56:46;100531.91;;;19.18;45.26
74343;BME280;62767;50.300;8.070;2024-03-22T01:59:12;100518.88;;;19.16;45.12
74343;BME280;62767;50.300;8.070;2024-03-22T02:01:38;100524.16;;;19.16;45.24
74343;BME280;62767;50.300;8.070;2024-03-22T02:04:04;100523.31;;;19.16;45.34
74343;BME280;62767;50.300;8.070;2024-03-22T02:06:30;100518.16;;;19.14;45.22
74343;BME280;62767;50.300;8.070;2024-03-22T02:08:57;100512.03;;;19.14;45.17
74343;BME280;62767;50.300;8.070;2024-03-22T02:11:23;100511.34;;;19.12;45.13
74343;BME280;62767;50.300;8.070;2024-03-22T02:13:49;100511.34;;;19.12;45.19
74343;BME280;62767;50.300;8.070;2024-03-22T02:16:14;100504.41;;;19.11;45.23
74343;BME280;62767;50.300;8.070;2024-03-22T02:18:40;100513.16;;;19.11;45.04
74343;BME280;62767;50.300;8.070;2024-03-22T02:21:05;100508.84;;;19.10;45.28
74343;BME280;62767;50.300;8.070;2024-03-22T02:23:35;100505.34;;;19.10;45.30
74343;BME280;62767;50.300;8.070;2024-03-22T02:26:01;100491.44;;;19.08;45.22
74343;BME280;62767;50.300;8.070;2024-03-22T02:28:27;100492.28;;;19.08;45.17
74343;BME280;62767;50.300;8.070;2024-03-22T02:30:53;100495.88;;;19.07;45.18
74343;BME280;62767;50.300;8.070;2024-03-22T02:33:18;100488.97;;;19.06;45.14
74343;BME280;62767;50.300;8.070;2024-03-22T02:35:46;100481.84;;;19.07;45.24
74343;BME280;62767;50.300;8.070;2024-03-22T02:38:12;100482.00;;;19.05;45.06
74343;BME280;62767;50.300;8.070;2024-03-22T02:40:37;100483.81;;;19.05;45.24
74343;BME280;62767;50.300;8.070;2024-03-22T02:43:03;100486.44;;;19.05;45.02
74343;BME280;62767;50.300;8.070;2024-03-22T02:45:30;100481.28;;;19.03;45.29
74343;BME280;62767;50.300;8.070;2024-03-22T02:47:56;100478.75;;;19.02;45.16
74343;BME280;62767;50.300;8.070;2024-03-22T02:50:21;100474.31;;;19.02;45.22
74343;BME280;62767;50.300;8.070;2024-03-22T02:52:48;100470.00;;;19.01;45.18
74343;BME280;62767;50.300;8.070;2024-03-22T02:55:14;100465.56;;;19.02;45.06
74343;BME280;62767;50.300;8.070;2024-03-22T02:57:39;100458.63;;;19.01;45.11
74343;BME280;62767;50.300;8.070;2024-03-22T03:00:05;100449.91;;;19.00;45.25
74343;BME280;62767;50.300;8.070;2024-03-22T03:02:31;100450.84;;;18.99;45.19
74343;BME280;62767;50.300;8.070;2024-03-22T03:04:57;100449.19;;;18.98;45.18
74343;BME280;62767;50.300;8.070;2024-03-22T03:07:24;100448.34;;;18.98;45.20
74343;BME280;62767;50.300;8.070;2024-03-22T03:09:50;100432.50;;;18.98;45.12
74343;BME280;62767;50.300;8.070;2024-03-22T03:12:15;100433.59;;;18.95;45.17
74343;BME280;62767;50.300;8.070;2024-03-22T03:14:41;100441.50;;;18.95;45.25
74343;BME280;62767;50.300;8.070;2024-03-22T03:17:07;100434.59;;;18.94;45.10
74343;BME280;62767;50.300;8.070;2024-03-22T03:19:33;100438.88;;;18.95;45.15
74343;BME280;62767;50.300;8.070;2024-03-22T03:21:58;100431.94;;;18.94;45.03
74343;BME280;62767;50.300;8.070;2024-03-22T03:24:24;100431.09;;;18.93;45.03
74343;BME280;62767;50.300;8.070;2024-03-22T03:26:49;100438.31;;;18.91;45.08
74343;BME280;62767;50.300;8.070;2024-03-22T03:29:15;100425.22;;;18.90;45.05
74343;BME280;62767;50.300;8.070;2024-03-22T03:31:40;100426.06;;;18.90;45.06
74343;BME280;62767;50.300;8.070;2024-03-22T03:34:06;100409.56;;;18.88;45.16
74343;BME280;62767;50.300;8.070;2024-03-22T03:36:31;100413.84;;;18.89;45.14
74343;BME280;62767;50.300;8.070;2024-03-22T03:38:57;100409.56;;;18.88;45.16
74343;BME280;62767;50.300;8.070;2024-03-22T03:41:22;100404.28;;;18.88;45.14
74343;BME280;62767;50.300;8.070;2024-03-22T03:43:48;100401.66;;;18.88;45.09
74343;BME280;62767;50.300;8.070;2024-03-22T03:46:13;100406.09;;;18.88;45.08
74343;BME280;62767;50.300;8.070;2024-03-22T03:48:39;100405.25;;;18.87;45.12
74343;BME280;62767;50.300;8.070;2024-03-22T03:51:05;100399.25;;;18.85;45.21
74343;BME280;62767;50.300;8.070;2024-03-22T03:53:30;100393.13;;;18.85;45.04
74343;BME280;62767;50.300;8.070;2024-03-22T03:55:56;100387.88;;;18.85;45.07
74343;BME280;62767;50.300;8.070;2024-03-22T03:58:22;100388.69;;;18.85;45.12
74343;BME280;62767;50.300;8.070;2024-03-22T04:00:47;100386.91;;;18.86;45.00
74343;BME280;62767;50.300;8.070;2024-03-22T04:03:13;100386.19;;;18.84;45.16
74343;BME280;62767;50.300;8.070;2024-03-22T04:05:39;100387.97;;;18.83;45.12
74343;BME280;62767;50.300;8.070;2024-03-22T04:08:04;100380.06;;;18.83;45.08
74343;BME280;62767;50.300;8.070;2024-03-22T04:10:30;100382.03;;;18.81;45.02
74343;BME280;62767;50.300;8.070;2024-03-22T04:12:55;100381.19;;;18.81;44.97
74343;BME280;62767;50.300;8.070;2024-03-22T04:15:21;100368.97;;;18.80;45.06
74343;BME280;62767;50.300;8.070;2024-03-22T04:17:47;100373.41;;;18.79;44.89
74343;BME280;62767;50.300;8.070;2024-03-22T04:20:12;100377.72;;;18.80;45.06
74343;BME280;62767;50.300;8.070;2024-03-22T04:22:38;100376.03;;;18.79;45.04
74343;BME280;62767;50.300;8.070;2024-03-22T04:25:04;100376.16;;;18.78;45.04
74343;BME280;62767;50.300;8.070;2024-03-22T04:27:29;100372.72;;;18.77;45.00
74343;BME280;62767;50.300;8.070;2024-03-22T04:29:55;100376.31;;;18.76;44.92
74343;BME280;62767;50.300;8.070;2024-03-22T04:32:20;100382.53;;;18.75;45.18
74343;BME280;62767;50.300;8.070;2024-03-22T04:34:46;100379.78;;;18.77;45.01
74343;BME280;62767;50.300;8.070;2024-03-22T04:37:11;100370.19;;;18.76;45.05
74343;BME280;62767;50.300;8.070;2024-03-22T04:39:38;100375.59;;;18.74;44.99
74343;BME280;62767;50.300;8.070;2024-03-22T04:42:03;100379.06;;;18.75;45.02
74343;BME280;62767;50.300;8.070;2024-03-22T04:44:29;100370.31;;;18.74;44.97
74343;BME280;62767;50.300;8.070;2024-03-22T04:46:54;100371.28;;;18.73;45.01
74343;BME280;62767;50.300;8.070;2024-03-22T04:49:20;100371.03;;;18.76;45.23
74343;BME280;62767;50.300;8.070;2024-03-22T04:51:46;100373.41;;;18.79;44.83
74343;BME280;62767;50.300;8.070;2024-03-22T04:54:12;100376.03;;;18.79;45.03
74343;BME280;62767;50.300;8.070;2024-03-22T04:56:38;100365.28;;;18.92;45.39
74343;BME280;62767;50.300;8.070;2024-03-22T04:59:04;100358.56;;;19.09;45.38
74343;BME280;62767;50.300;8.070;2024-03-22T05:01:29;100367.94;;;19.22;44.97
74343;BME280;62767;50.300;8.070;2024-03-22T05:03:55;100367.44;;;19.38;44.86
74343;BME280;62767;50.300;8.070;2024-03-22T05:06:20;100362.53;;;19.54;44.56
74343;BME280;62767;50.300;8.070;2024-03-22T05:08:45;100360.06;;;19.72;44.60
74343;BME280;62767;50.300;8.070;2024-03-22T05:11:11;100360.53;;;19.87;44.43
74343;BME280;62767;50.300;8.070;2024-03-22T05:13:36;100364.69;;;19.99;44.10
74343;BME280;62767;50.300;8.070;2024-03-22T05:16:02;100366.41;;;20.09;43.94
74343;BME280;62767;50.300;8.070;2024-03-22T05:18:28;100368.31;;;20.17;44.03
74343;BME280;62767;50.300;8.070;2024-03-22T05:20:54;100372.09;;;20.24;43.96
74343;BME280;62767;50.300;8.070;2024-03-22T05:23:19;100360.97;;;20.30;43.90
74343;BME280;62767;50.300;8.070;2024-03-22T05:25:45;100363.22;;;20.35;43.64
74343;BME280;62767;50.300;8.070;2024-03-22T05:28:10;100359.47;;;20.37;43.84
74343;BME280;62767;50.300;8.070;2024-03-22T05:30:36;100367.25;;;20.39;43.95
74343;BME280;62767;50.300;8.070;2024-03-22T05:33:02;100356.53;;;20.40;43.88
74343;BME280;62767;50.300;8.070;2024-03-22T05:35:28;100354.00;;;20.29;43.60
74343;BME280;62767;50.300;8.070;2024-03-22T05:37:53;100352.47;;;20.17;43.97
74343;BME280;62767;50.300;8.070;2024-03-22T05:40:18;100349.81;;;20.07;43.94
74343;BME280;62767;50.300;8.070;2024-03-22T05:42:44;100347.59;;;20.03;44.27
74343;BME280;62767;50.300;8.070;2024-03-22T05:45:09;100346.19;;;19.99;44.12
74343;BME280;62767;50.300;8.070;2024-03-22T05:47:35;100340.22;;;19.97;44.04
74343;BME280;62767;50.300;8.070;2024-03-22T05:50:03;100338.69;;;19.94;44.07
74343;BME280;62767;50.300;8.070;2024-03-22T05:52:28;100338.69;;;19.85;43.79
74343;BME280;62767;50.300;8.070;2024-03-22T05:54:54;100335.06;;;19.86;43.95
74343;BME280;62767;50.300;8.070;2024-03-22T05:57:20;100334.38;;;19.84;43.72
74343;BME280;62767;50.300;8.070;2024-03-22T05:59:46;100333.53;;;19.83;43.91
74343;BME280;62767;50.300;8.070;2024-03-22T06:02:14;100326.03;;;19.79;43.96
74343;BME280;62767;50.300;8.070;2024-03-22T06:04:41;100329.09;;;19.74;43.98
74343;BME280;62767;50.300;8.070;2024-03-22T06:07:06;100334.63;;;19.71;43.79
74343;BME280;62767;50.300;8.070;2024-03-22T06:09:32;100323.38;;;19.69;43.90
74343;BME280;62767;50.300;8.070;2024-03-22T06:12:13;100327.81;;;19.68;43.88
74343;BME280;62767;50.300;8.070;2024-03-22T06:14:40;100330.72;;;19.65;43.81
74343;BME280;62767;50.300;8.070;2024-03-22T06:17:06;100320.56;;;19.61;44.02
74343;BME280;62767;50.300;8.070;2024-03-22T06:19:32;100318.47;;;19.55;44.13
74343;BME280;62767;50.300;8.070;2024-03-22T06:21:57;100319.84;;;19.49;44.19
74343;BME280;62767;50.300;8.070;2024-03-22T06:24:23;100315.06;;;19.43;44.30
74343;BME280;62767;50.300;8.070;2024-03-22T06:26:48;100312.84;;;19.39;44.30
74343;BME280;62767;50.300;8.070;2024-03-22T06:29:17;100315.91;;;19.34;44.54
74343;BME280;62767;50.300;8.070;2024-03-22T06:31:42;100312.84;;;19.29;44.51
74343;BME280;62767;50.300;8.070;2024-03-22T06:34:08;100319.31;;;19.25;44.69
74343;BME280;62767;50.300;8.070;2024-03-22T06:36:33;100304.72;;;19.21;44.78
74343;BME280;62767;50.300;8.070;2024-03-22T06:38:59;100297.06;;;19.18;44.53
74343;BME280;62767;50.300;8.070;2024-03-22T06:41:25;100293.75;;;19.16;44.79
74343;BME280;62767;50.300;8.070;2024-03-22T06:43:54;100293.88;;;19.14;44.84
74343;BME280;62767;50.300;8.070;2024-03-22T06:46:19;100296.63;;;19.13;44.80
74343;BME280;62767;50.300;8.070;2024-03-22T06:48:45;100298.59;;;19.11;44.84
74343;BME280;62767;50.300;8.070;2024-03-22T06:51:11;100289.00;;;19.10;44.87
74343;BME280;62767;50.300;8.070;2024-03-22T06:53:37;100286.50;;;19.08;44.69
74343;BME280;62767;50.300;8.070;2024-03-22T06:56:04;100278.56;;;19.08;44.85
74343;BME280;62767;50.300;8.070;2024-03-22T06:58:29;100273.44;;;19.07;44.81
74343;BME280;62767;50.300;8.070;2024-03-22T07:00:55;100279.69;;;19.06;44.70
74343;BME280;62767;50.300;8.070;2024-03-22T07:03:20;100282.34;;;19.06;44.71
74343;BME280;62767;50.300;8.070;2024-03-22T07:05:47;100277.19;;;19.04;44.75
74343;BME280;62767;50.300;8.070;2024-03-22T07:08:12;100274.53;;;19.04;44.81
74343;BME280;62767;50.300;8.070;2024-03-22T07:10:39;100273.28;;;18.99;44.88
74343;BME280;62767;50.300;8.070;2024-03-22T07:13:05;100270.63;;;18.99;44.96
74343;BME280;62767;50.300;8.070;2024-03-22T07:15:30;100266.88;;;19.01;44.97
74343;BME280;62767;50.300;8.070;2024-03-22T07:17:58;100272.47;;;19.08;44.74
74343;BME280;62767;50.300;8.070;2024-03-22T07:20:24;100269.41;;;19.12;44.76
74343;BME280;62767;50.300;8.070;2024-03-22T07:22:49;100270.00;;;19.16;44.52
74343;BME280;62767;50.300;8.070;2024-03-22T07:25:15;100262.66;;;19.19;44.50
74343;BME280;62767;50.300;8.070;2024-03-22T07:27:40;100267.50;;;19.24;44.38
74343;BME280;62767;50.300;8.070;2024-03-22T07:30:06;100259.34;;;19.27;44.27
74343;BME280;62767;50.300;8.070;2024-03-22T07:32:33;100266.00;;;19.31;44.01
74343;BME280;62767;50.300;8.070;2024-03-22T07:34:58;100259.63;;;19.33;43.98
74343;BME280;62767;50.300;8.070;2024-03-22T07:37:24;100260.06;;;19.39;44.07
74343;BME280;62767;50.300;8.070;2024-03-22T07:39:49;100254.66;;;19.40;43.95
74343;BME280;62767;50.300;8.070;2024-03-22T07:42:15;100255.31;;;19.42;43.63
74343;BME280;62767;50.300;8.070;2024-03-22T07:44:40;100254.25;;;19.45;43.86
74343;BME280;62767;50.300;8.070;2024-03-22T07:47:06;100248.88;;;19.46;43.60
74343;BME280;62767;50.300;8.070;2024-03-22T07:49:32;100249.53;;;19.48;43.56
74343;BME280;62767;50.300;8.070;2024-03-22T07:51:59;100248.56;;;19.49;43.61
74343;BME280;62767;50.300;8.070;2024-03-22T07:54:25;100238.84;;;19.50;43.26
74343;BME280;62767;50.300;8.070;2024-03-22T07:56:50;100244.97;;;19.50;43.50
74343;BME280;62767;50.300;8.070;2024-03-22T07:59:16;100244.84;;;19.52;43.50
74343;BME280;62767;50.300;8.070;2024-03-22T08:01:41;100241.34;;;19.51;43.41
74343;BME280;62767;50.300;8.070;2024-03-22T08:04:07;100239.69;;;19.50;43.46
74343;BME280;62767;50.300;8.070;2024-03-22T08:06:33;100230.09;;;19.49;43.41
74343;BME280;62767;50.300;8.070;2024-03-22T08:08:58;100226.63;;;19.49;43.37
74343;BME280;62767;50.300;8.070;2024-03-22T08:11:24;100227.59;;;19.48;43.40
74343;BME280;62767;50.300;8.070;2024-03-22T08:13:49;100218.81;;;19.47;43.59
74343;BME280;62767;50.300;8.070;2024-03-22T08:16:15;100215.59;;;19.44;43.55
74343;BME280;62767;50.300;8.070;2024-03-22T08:18:40;100221.72;;;19.44;43.57
74343;BME280;62767;50.300;8.070;2024-03-22T08:21:06;100220.88;;;19.44;43.51
74343;BME280;62767;50.300;8.070;2024-03-22T08:23:31;100214.91;;;19.42;43.64
74343;BME280;62767;50.300;8.070;2024-03-22T08:25:57;100209.78;;;19.40;43.56
74343;BME280;62767;50.300;8.070;2024-03-22T08:28:22;100208.09;;;19.39;43.54
74343;BME280;62767;50.300;8.070;2024-03-22T08:30:50;100202.97;;;19.38;43.60
74343;BME280;62767;50.300;8.070;2024-03-22T08:33:15;100201.28;;;19.37;43.67
74343;BME280;62767;50.300;8.070;2024-03-22T08:35:41;100190.06;;;19.34;43.68
74343;BME280;62767;50.300;8.070;2024-03-22T08:38:06;100186.56;;;19.34;43.71
74343;BME280;62767;50.300;8.070;2024-03-22T08:40:40;100189.34;;;19.32;43.71
74343;BME280;62767;50.300;8.070;2024-03-22T08:43:06;100181.56;;;19.31;43.63
74343;BME280;62767;50.300;8.070;2024-03-22T08:45:35;100176.41;;;19.29;43.68
74343;BME280;62767;50.300;8.070;2024-03-22T08:48:00;100175.59;;;19.29;43.68
74343;BME280;62767;50.300;8.070;2024-03-22T08:50:26;100169.63;;;19.27;43.72
74343;BME280;62767;50.300;8.070;2024-03-22T08:52:52;100172.38;;;19.25;43.73
74343;BME280;62767;50.300;8.070;2024-03-22T08:55:18;100168.91;;;19.25;43.65
74343;BME280;62767;50.300;8.070;2024-03-22T08:57:43;100162.94;;;19.23;43.85
74343;BME280;62767;50.300;8.070;2024-03-22T09:00:09;100162.13;;;19.22;43.72
74343;BME280;62767;50.300;8.070;2024-03-22T09:02:36;100156.97;;;19.21;43.81
74343;BME280;62767;50.300;8.070;2024-03-22T09:05:02;100161.41;;;19.20;43.84
74343;BME280;62767;50.300;8.070;2024-03-22T09:07:27;100151.81;;;19.19;43.79
74343;BME280;62767;50.300;8.070;2024-03-22T09:09:53;100152.78;;;19.18;43.88
74343;BME280;62767;50.300;8.070;2024-03-22T09:12:19;100151.13;;;19.17;43.82
74343;BME280;62767;50.300;8.070;2024-03-22T09:14:45;100146.66;;;19.18;43.76
74343;BME280;62767;50.300;8.070;2024-03-22T09:17:10;100134.47;;;19.17;43.88
74343;BME280;62767;50.300;8.070;2024-03-22T09:19:36;100147.66;;;19.17;43.81
74343;BME280;62767;50.300;8.070;2024-03-22T09:22:02;100138.09;;;19.16;43.92
74343;BME280;62767;50.300;8.070;2024-03-22T09:24:28;100132.81;;;19.16;43.97
74343;BME280;62767;50.300;8.070;2024-03-22T09:26:53;100142.66;;;19.14;43.94
74343;BME280;62767;50.300;8.070;2024-03-22T09:29:19;100140.84;;;19.14;43.79
74343;BME280;62767;50.300;8.070;2024-03-22T09:31:44;100128.63;;;19.13;43.80
74343;BME280;62767;50.300;8.070;2024-03-22T09:34:12;100133.06;;;19.13;44.00
74343;BME280;62767;50.300;8.070;2024-03-22T09:36:37;100133.06;;;19.13;43.96
74343;BME280;62767;50.300;8.070;2024-03-22T09:39:04;100124.31;;;19.12;43.93
74343;BME280;62767;50.300;8.070;2024-03-22T09:41:31;100126.16;;;19.12;43.93
74343;BME280;62767;50.300;8.070;2024-03-22T09:43:58;100126.28;;;19.10;43.94
74343;BME280;62767;50.300;8.070;2024-03-22T09:46:26;100126.28;;;19.10;43.99
74343;BME280;62767;50.300;8.070;2024-03-22T09:48:53;100121.97;;;19.09;44.04
74343;BME280;62767;50.300;8.070;2024-03-22T09:51:19;100118.50;;;19.09;44.11
74343;BME280;62767;50.300;8.070;2024-03-22T09:53:48;100111.28;;;19.11;44.08
74343;BME280;62767;50.300;8.070;2024-03-22T09:56:14;100100.56;;;19.12;44.14
74343;BME280;62767;50.300;8.070;2024-03-22T09:58:41;100103.91;;;19.14;43.93
74343;BME280;62767;50.300;8.070;2024-03-22T10:01:07;100095.72;;;19.17;43.96
74343;BME280;62767;50.300;8.070;2024-03-22T10:03:33;100099.88;;;19.20;43.81
74343;BME280;62767;50.300;8.070;2024-03-22T10:05:59;100092.53;;;19.23;43.79
74343;BME280;62767;50.300;8.070;2024-03-22T10:08:25;100098.34;;;19.27;43.76
74343;BME280;62767;50.300;8.070;2024-03-22T10:10:51;100087.69;;;19.28;43.69
74343;BME280;62767;50.300;8.070;2024-03-22T10:13:17;100084.75;;;19.31;43.63
74343;BME280;62767;50.300;8.070;2024-03-22T10:15:42;100084.47;;;19.34;43.85
74343;BME280;62767;50.300;8.070;2024-03-22T10:18:09;100078.91;;;19.38;43.47
74343;BME280;62767;50.300;8.070;2024-03-22T10:20:35;100079.59;;;19.40;43.58
74343;BME280;62767;50.300;8.070;2024-03-22T10:23:00;100069.88;;;19.40;43.47
74343;BME280;62767;50.300;8.070;2024-03-22T10:25:27;100070.56;;;19.42;43.49
74343;BME280;62767;50.300;8.070;2024-03-22T10:27:56;100068.75;;;19.43;43.41
74343;BME280;62767;50.300;8.070;2024-03-22T10:30:24;100075.69;;;19.44;43.37
74343;BME280;62767;50.300;8.070;2024-03-22T10:32:51;100061.53;;;19.45;43.44
74343;BME280;62767;50.300;8.070;2024-03-22T10:35:17;100059.88;;;19.44;43.40
74343;BME280;62767;50.300;8.070;2024-03-22T10:37:43;100058.06;;;19.44;43.42
74343;BME280;62767;50.300;8.070;2024-03-22T10:40:09;100063.34;;;19.44;43.48
74343;BME280;62767;50.300;8.070;2024-03-22T10:42:39;100045.69;;;19.45;43.33
74343;BME280;62767;50.300;8.070;2024-03-22T10:45:06;100054.50;;;19.45;43.55
74343;BME280;62767;50.300;8.070;2024-03-22T10:47:34;100045.69;;;19.45;43.34
74343;BME280;62767;50.300;8.070;2024-03-22T10:50:07;100045.69;;;19.45;43.38
74343;BME280;62767;50.300;8.070;2024-03-22T10:52:36;100039.59;;;19.44;43.33
74343;BME280;62767;50.300;8.070;2024-03-22T10:55:05;100030.84;;;19.44;43.28
74343;BME280;62767;50.300;8.070;2024-03-22T10:57:32;100030.00;;;19.43;43.34
74343;BME280;62767;50.300;8.070;2024-03-22T11:00:04;100029.16;;;19.43;43.46
74343;BME280;62767;50.300;8.070;2024-03-22T11:02:37;100015.13;;;19.42;43.40
74343;BME280;62767;50.300;8.070;2024-03-22T11:05:06;100011.66;;;19.42;43.53
74343;BME280;62767;50.300;8.070;2024-03-22T11:07:32;100009.00;;;19.42;43.43
74343;BME280;62767;50.300;8.070;2024-03-22T11:10:00;100011.66;;;19.42;43.57
74343;BME280;62767;50.300;8.070;2024-03-22T11:12:28;100010.00;;;19.41;43.54
74343;BME280;62767;50.300;8.070;2024-03-22T11:14:58;100006.53;;;19.40;43.53
74343;BME280;62767;50.300;8.070;2024-03-22T11:17:23;100005.72;;;19.40;43.53
74343;BME280;62767;50.300;8.070;2024-03-22T11:19:53;99999.59;;;19.39;43.59
74343;BME280;62767;50.300;8.070;2024-03-22T11:22:20;99998.75;;;19.39;43.50
74343;BME280;62767;50.300;8.070;2024-03-22T11:24:45;99998.75;;;19.39;43.52
74343;BME280;62767;50.300;8.070;2024-03-22T11:27:11;99991.81;;;19.38;43.46
74343;BME280;62767;50.300;8.070;2024-03-22T11:29:38;99987.38;;;19.38;43.70
74343;BME280;62767;50.300;8.070;2024-03-22T11:32:07;99983.88;;;19.38;43.62
74343;BME280;62767;50.300;8.070;2024-03-22T11:34:37;99990.97;;;19.37;43.67
74343;BME280;62767;50.300;8.070;2024-03-22T11:37:05;99983.06;;;19.37;43.54
74343;BME280;62767;50.300;8.070;2024-03-22T11:39:33;99976.94;;;19.37;43.63
74343;BME280;62767;50.300;8.070;2024-03-22T11:42:04;99976.09;;;19.36;43.73
74343;BME280;62767;50.300;8.070;2024-03-22T11:44:31;99970.00;;;19.35;43.76
74343;BME280;62767;50.300;8.070;2024-03-22T11:46:57;99972.63;;;19.35;43.66
74343;BME280;62767;50.300;8.070;2024-03-22T11:49:23;99971.78;;;19.35;43.69
74343;BME280;62767;50.300;8.070;2024-03-22T11:51:51;99968.34;;;19.34;43.74
74343;BME280;62767;50.300;8.070;2024-03-22T11:54:19;99973.63;;;19.34;43.66
74343;BME280;62767;50.300;8.070;2024-03-22T11:56:45;99970.00;;;19.35;43.83
74343;BME280;62767;50.300;8.070;2024-03-22T11:59:11;99977.06;;;19.35;43.78
74343;BME280;62767;50.300;8.070;2024-03-22T12:01:36;99962.25;;;19.34;43.66
74343;BME280;62767;50.300;8.070;2024-03-22T12:04:02;99952.66;;;19.33;43.77
74343;BME280;62767;50.300;8.070;2024-03-22T12:06:27;99950.84;;;19.33;43.80
74343;BME280;62767;50.300;8.070;2024-03-22T12:08:53;99953.50;;;19.33;43.82
74343;BME280;62767;50.300;8.070;2024-03-22T12:11:19;99955.28;;;19.33;43.66
74343;BME280;62767;50.300;8.070;2024-03-22T12:13:45;99947.38;;;19.33;43.76
74343;BME280;62767;50.300;8.070;2024-03-22T12:16:10;99943.06;;;19.32;43.80
74343;BME280;62767;50.300;8.070;2024-03-22T12:18:36;99945.72;;;19.32;43.77
74343;BME280;62767;50.300;8.070;2024-03-22T12:21:01;99932.50;;;19.32;43.79
74343;BME280;62767;50.300;8.070;2024-03-22T12:23:27;99936.00;;;19.32;43.90
74343;BME280;62767;50.300;8.070;2024-03-22T12:25:53;99944.03;;;19.31;43.90
74343;BME280;62767;50.300;8.070;2024-03-22T12:28:20;99936.13;;;19.31;43.81
74343;BME280;62767;50.300;8.070;2024-03-22T12:30:47;99941.41;;;19.31;43.92
74343;BME280;62767;50.300;8.070;2024-03-22T12:33:12;99937.94;;;19.30;44.01
74343;BME280;62767;50.300;8.070;2024-03-22T12:35:41;99923.91;;;19.30;43.90
74343;BME280;62767;50.300;8.070;2024-03-22T12:38:07;99930.97;;;19.29;43.83
74343;BME280;62767;50.300;8.070;2024-03-22T12:40:35;99930.97;;;19.29;43.88
74343;BME280;62767;50.300;8.070;2024-03-22T12:43:00;99924.91;;;19.29;43.87